Time;durP1;ratioP1;P1;durP2;ratioP2;P2;SDS_P1;SDS_P2;PMS_P1;PMS_P2;Temp;Humidity;BMP_temperature;BMP_pressure;BME280_temperature;BME280_humidity;BME280_pressure;Samples;Min_cycle;Max_cycle;Signal;HPM_P1;HPM_P2
2022/09/27 00:01:20;;;;;;;;;;;11.40;99.90;;;;;;5072625;28;20577;-74
2022/09/27 00:03:45;;;;;;;;;;;11.40;99.90;;;;;;5073143;28;20003;-74
2022/09/27 00:06:25;;;;;;;;;;;11.50;99.90;;;;;;5072830;28;20261;-74
2022/09/27 00:08:50;;;;;;;;;;;11.40;99.90;;;;;;5073357;28;19909;-73
2022/09/27 00:11:25;;;;;;;;;;;11.40;99.90;;;;;;5072736;28;19908;-74
2022/09/27 00:13:51;;;;;;;;;;;11.40;99.90;;;;;;5073241;28;19908;-74
2022/09/27 00:16:17;;;;;;;;;;;11.40;99.90;;;;;;5072695;28;19908;-74
2022/09/27 00:18:43;;;;;;;;;;;11.30;99.90;;;;;;5073040;28;19912;-73
2022/09/27 00:21:10;;;;;;;;;;;11.30;99.90;;;;;;5072451;28;19962;-74
2022/09/27 00:23:36;;;;;;;;;;;11.30;99.90;;;;;;5072943;28;19912;-74
2022/09/27 00:26:02;;;;;;;;;;;11.30;99.90;;;;;;5072530;28;20254;-73
2022/09/27 00:28:28;;;;;;;;;;;11.30;99.90;;;;;;5071397;28;19915;-74
2022/09/27 00:30:53;;;;;;;;;;;11.30;99.90;;;;;;5072672;28;19917;-74
2022/09/27 00:33:19;;;;;;;;;;;11.30;99.90;;;;;;5072007;28;19908;-74
2022/09/27 00:35:45;;;;;;;;;;;11.30;99.90;;;;;;5071388;28;20017;-75
2022/09/27 00:38:11;;;;;;;;;;;11.30;99.90;;;;;;5072205;28;19962;-74
2022/09/27 00:40:37;;;;;;;;;;;11.30;99.90;;;;;;5072318;28;19956;-75
2022/09/27 00:43:12;;;;;;;;;;;11.30;99.90;;;;;;5070761;28;19970;-75
2022/09/27 00:45:38;;;;;;;;;;;11.40;99.90;;;;;;5071525;28;19913;-73
2022/09/27 00:48:04;;;;;;;;;;;11.30;99.90;;;;;;5072159;28;19966;-74
2022/09/27 00:50:36;;;;;;;;;;;11.40;99.90;;;;;;5072551;28;19927;-73
2022/09/27 00:53:01;;;;;;;;;;;11.40;99.90;;;;;;5071669;28;19908;-74
2022/09/27 00:55:35;;;;;;;;;;;11.40;99.90;;;;;;5072213;28;19919;-73
2022/09/27 00:58:01;;;;;;;;;;;11.40;99.90;;;;;;5071560;28;19913;-74
2022/09/27 01:00:27;;;;;;;;;;;11.50;99.90;;;;;;5075896;28;19909;-74
2022/09/27 01:02:54;;;;;;;;;;;11.50;99.90;;;;;;5076877;28;20421;-74
2022/09/27 01:05:21;;;;;;;;;;;11.40;99.90;;;;;;5075833;28;19913;-73
2022/09/27 01:07:47;;;;;;;;;;;11.40;99.90;;;;;;5076495;28;19916;-74
2022/09/27 01:10:13;;;;;;;;;;;11.40;99.90;;;;;;5076263;28;19912;-74
2022/09/27 01:12:51;;;;;;;;;;;11.40;99.90;;;;;;5076729;28;19995;-74
2022/09/27 01:15:20;;;;;;;;;;;11.30;99.90;;;;;;5076097;28;20004;-74
2022/09/27 01:17:57;;;;;;;;;;;11.40;99.90;;;;;;5075276;28;19912;-75
2022/09/27 01:20:35;;;;;;;;;;;11.40;99.90;;;;;;5075787;28;19912;-73
2022/09/27 01:23:19;;;;;;;;;;;11.40;99.90;;;;;;5076461;28;20005;-74
2022/09/27 01:25:48;;;;;;;;;;;11.40;99.90;;;;;;5076107;28;19919;-74
2022/09/27 01:28:20;;;;;;;;;;;11.40;99.90;;;;;;5075865;28;19912;-74
2022/09/27 01:30:52;;;;;;;;;;;11.40;99.90;;;;;;5076311;28;19913;-74
2022/09/27 01:33:37;;;;;;;;;;;11.40;99.90;;;;;;5075337;28;19962;-74
2022/09/27 01:36:19;;;;;;;;;;;11.40;99.90;;;;;;5076341;28;19908;-74
2022/09/27 01:38:55;;;;;;;;;;;11.50;99.90;;;;;;5075922;28;20346;-74
2022/09/27 01:41:26;;;;;;;;;;;11.40;99.90;;;;;;5075927;28;20478;-74
2022/09/27 01:43:51;;;;;;;;;;;11.50;99.90;;;;;;5076343;28;19916;-74
2022/09/27 01:46:20;;;;;;;;;;;11.50;99.90;;;;;;5075443;28;20003;-75
2022/09/27 01:48:47;;;;;;;;;;;11.40;99.90;;;;;;5075751;28;19909;-74
2022/09/27 01:51:15;;;;;;;;;;;11.50;99.90;;;;;;5074789;28;20027;-74
2022/09/27 01:53:49;;;;;;;;;;;11.40;99.90;;;;;;5074742;28;20286;-74
2022/09/27 01:56:21;;;;;;;;;;;11.50;99.90;;;;;;5075567;28;19995;-75
2022/09/27 01:58:56;;;;;;;;;;;11.50;99.90;;;;;;5074684;28;19909;-74
2022/09/27 02:01:23;;;;;;;;;;;11.50;99.90;;;;;;5075430;28;19962;-74
2022/09/27 02:03:50;;;;;;;;;;;11.50;99.90;;;;;;5075492;28;19956;-74
2022/09/27 02:06:26;;;;;;;;;;;11.50;99.90;;;;;;5074829;28;19913;-74
2022/09/27 02:08:57;;;;;;;;;;;11.50;99.90;;;;;;5075914;28;20019;-73
2022/09/27 02:11:23;;;;;;;;;;;11.50;99.90;;;;;;5073964;28;19923;-73
2022/09/27 02:14:09;;;;;;;;;;;11.50;99.90;;;;;;5074318;28;19909;-74
2022/09/27 02:16:34;;;;;;;;;;;11.60;99.90;;;;;;5075183;28;19916;-73
2022/09/27 02:19:06;;;;;;;;;;;11.60;99.90;;;;;;5075249;28;19995;-74
2022/09/27 02:21:41;;;;;;;;;;;11.60;99.90;;;;;;5074850;28;20011;-74
2022/09/27 02:24:08;;;;;;;;;;;11.50;99.90;;;;;;5075196;28;19913;-73
2022/09/27 02:26:41;;;;;;;;;;;11.50;99.90;;;;;;5073582;28;19912;-73
2022/09/27 02:29:12;;;;;;;;;;;11.60;99.90;;;;;;5075255;28;19970;-74
2022/09/27 02:31:37;;;;;;;;;;;11.60;99.90;;;;;;5075259;28;19916;-74
2022/09/27 02:34:10;;;;;;;;;;;11.60;99.90;;;;;;5075156;28;19912;-74
2022/09/27 02:36:37;;;;;;;;;;;11.60;99.90;;;;;;5075275;28;19915;-74
2022/09/27 02:39:03;;;;;;;;;;;11.50;99.90;;;;;;5074687;28;19999;-74
2022/09/27 02:41:28;;;;;;;;;;;11.50;99.90;;;;;;5074396;28;19995;-75
2022/09/27 02:44:00;;;;;;;;;;;11.50;99.90;;;;;;5074554;28;19920;-74
2022/09/27 02:46:36;;;;;;;;;;;11.50;99.90;;;;;;5073905;28;20374;-74
2022/09/27 02:49:31;;;;;;;;;;;11.50;99.90;;;;;;5075038;28;19962;-75
2022/09/27 02:51:57;;;;;;;;;;;11.50;99.90;;;;;;5074954;28;19921;-73
2022/09/27 02:54:28;;;;;;;;;;;11.60;99.90;;;;;;5074534;28;20024;-74
2022/09/27 02:57:09;;;;;;;;;;;11.50;99.90;;;;;;5075073;28;19912;-73
2022/09/27 02:59:39;;;;;;;;;;;11.60;99.90;;;;;;5074736;28;19915;-73
2022/09/27 03:02:13;;;;;;;;;;;11.60;99.90;;;;;;5074758;28;20019;-73
2022/09/27 03:04:42;;;;;;;;;;;11.60;99.90;;;;;;5074746;28;20369;-73
2022/09/27 03:07:08;;;;;;;;;;;11.60;99.90;;;;;;5074135;28;19908;-73
2022/09/27 03:09:43;;;;;;;;;;;11.60;99.90;;;;;;5073810;28;20005;-73
2022/09/27 03:12:09;;;;;;;;;;;11.60;99.90;;;;;;5074017;28;19912;-73
2022/09/27 03:14:34;;;;;;;;;;;11.60;99.90;;;;;;5074094;28;19908;-74
2022/09/27 03:17:00;;;;;;;;;;;11.70;99.90;;;;;;5074580;28;19908;-74
2022/09/27 03:19:25;;;;;;;;;;;11.70;99.90;;;;;;5073508;28;19909;-74
2022/09/27 03:21:51;;;;;;;;;;;11.70;99.90;;;;;;5074323;28;20375;-74
2022/09/27 03:24:16;;;;;;;;;;;11.70;99.90;;;;;;5073724;28;19975;-74
2022/09/27 03:26:42;;;;;;;;;;;11.70;99.90;;;;;;5073992;28;19909;-75
2022/09/27 03:29:08;;;;;;;;;;;11.70;99.90;;;;;;5073891;28;19916;-74
2022/09/27 03:31:33;;;;;;;;;;;11.70;99.90;;;;;;5072493;28;19913;-75
2022/09/27 03:33:59;;;;;;;;;;;11.80;99.90;;;;;;5073980;28;19908;-74
2022/09/27 03:36:24;;;;;;;;;;;11.70;99.90;;;;;;5073715;28;20338;-73
2022/09/27 03:38:50;;;;;;;;;;;11.80;99.90;;;;;;5072594;28;19916;-73
2022/09/27 03:41:15;;;;;;;;;;;11.80;99.90;;;;;;5073374;28;19908;-73
2022/09/27 03:43:41;;;;;;;;;;;11.70;99.90;;;;;;5073875;28;20303;-74
2022/09/27 03:46:06;;;;;;;;;;;11.80;99.90;;;;;;5073780;28;19913;-74
2022/09/27 03:48:32;;;;;;;;;;;11.80;99.90;;;;;;5072059;28;19908;-75
2022/09/27 03:50:58;;;;;;;;;;;11.80;99.90;;;;;;5073664;28;20444;-74
2022/09/27 03:53:23;;;;;;;;;;;11.80;99.90;;;;;;5073092;28;20372;-74
2022/09/27 03:55:49;;;;;;;;;;;11.80;99.90;;;;;;5073669;28;19916;-74
2022/09/27 03:58:14;;;;;;;;;;;11.80;99.90;;;;;;5072970;28;19909;-74
2022/09/27 04:00:41;;;;;;;;;;;11.80;99.90;;;;;;5073720;28;20375;-74
2022/09/27 04:03:07;;;;;;;;;;;11.80;99.90;;;;;;5073391;28;19916;-74
2022/09/27 04:05:32;;;;;;;;;;;11.80;99.90;;;;;;5073242;28;20362;-74
2022/09/27 04:07:58;;;;;;;;;;;11.80;99.90;;;;;;5073324;28;19909;-74
2022/09/27 04:10:24;;;;;;;;;;;11.80;99.90;;;;;;5072858;28;19920;-74
2022/09/27 04:12:50;;;;;;;;;;;11.80;99.90;;;;;;5073331;28;20373;-74
2022/09/27 04:15:15;;;;;;;;;;;11.80;99.90;;;;;;5072913;28;19916;-74
2022/09/27 04:17:41;;;;;;;;;;;11.80;99.90;;;;;;5073240;28;19912;-75
2022/09/27 04:20:08;;;;;;;;;;;11.80;99.90;;;;;;5073131;28;19909;-74
2022/09/27 04:22:33;;;;;;;;;;;11.80;99.90;;;;;;5072819;28;19922;-74
2022/09/27 04:24:59;;;;;;;;;;;11.80;99.90;;;;;;5073359;28;19912;-74
2022/09/27 04:27:24;;;;;;;;;;;11.70;99.90;;;;;;5072087;28;19916;-74
2022/09/27 04:29:51;;;;;;;;;;;11.70;99.90;;;;;;5071903;28;19908;-75
2022/09/27 04:32:16;;;;;;;;;;;11.70;99.90;;;;;;5072344;28;19932;-75
2022/09/27 04:37:26;;;;;;;;;;;11.70;99.90;;;;;;5072221;28;20000;-75
2022/09/27 04:39:52;;;;;;;;;;;11.60;99.90;;;;;;5073004;28;20394;-75
2022/09/27 04:42:17;;;;;;;;;;;11.70;99.90;;;;;;5072337;28;19915;-75
2022/09/27 04:44:43;;;;;;;;;;;11.70;99.90;;;;;;5072719;28;19917;-74
2022/09/27 04:47:09;;;;;;;;;;;11.60;99.90;;;;;;5072423;28;19915;-75
2022/09/27 04:49:34;;;;;;;;;;;11.60;99.90;;;;;;5072391;28;19915;-75
2022/09/27 04:52:00;;;;;;;;;;;11.60;99.90;;;;;;5072480;28;20470;-75
2022/09/27 04:54:26;;;;;;;;;;;11.60;99.90;;;;;;5072263;28;19936;-75
2022/09/27 04:56:51;;;;;;;;;;;11.60;99.90;;;;;;5072729;28;19992;-75
2022/09/27 04:59:17;;;;;;;;;;;11.60;99.90;;;;;;5072056;28;19909;-75
2022/09/27 05:01:44;;;;;;;;;;;11.70;99.90;;;;;;5072857;28;19908;-75
2022/09/27 05:04:09;;;;;;;;;;;11.70;99.90;;;;;;5072724;28;19919;-74
2022/09/27 05:06:35;;;;;;;;;;;11.70;99.90;;;;;;5070945;28;19909;-73
2022/09/27 05:09:01;;;;;;;;;;;11.60;99.90;;;;;;5071549;28;19909;-74
2022/09/27 05:11:26;;;;;;;;;;;11.60;99.90;;;;;;5072009;28;19916;-74
2022/09/27 05:13:52;;;;;;;;;;;11.60;99.90;;;;;;5072334;28;19970;-74
2022/09/27 05:16:18;;;;;;;;;;;11.60;99.90;;;;;;5072105;28;19951;-74
2022/09/27 05:18:44;;;;;;;;;;;11.60;99.90;;;;;;5072677;28;19938;-74
2022/09/27 05:21:10;;;;;;;;;;;11.60;99.90;;;;;;5071863;28;20375;-75
2022/09/27 05:23:36;;;;;;;;;;;11.60;99.90;;;;;;5072181;28;19916;-74
2022/09/27 05:26:05;;;;;;;;;;;11.60;99.90;;;;;;5072647;28;19912;-74
2022/09/27 05:28:31;;;;;;;;;;;11.50;99.90;;;;;;5071435;28;19991;-74
2022/09/27 05:30:57;;;;;;;;;;;11.50;99.90;;;;;;5072454;28;19952;-74
2022/09/27 05:33:22;;;;;;;;;;;11.50;99.90;;;;;;5071737;28;19908;-75
2022/09/27 05:35:55;;;;;;;;;;;11.50;99.90;;;;;;5071011;28;19908;-75
2022/09/27 05:38:21;;;;;;;;;;;11.50;99.90;;;;;;5071916;28;19931;-75
2022/09/27 05:40:49;;;;;;;;;;;11.50;99.90;;;;;;5072521;28;20357;-75
2022/09/27 05:43:14;;;;;;;;;;;11.50;99.90;;;;;;5071578;28;19957;-75
2022/09/27 05:45:41;;;;;;;;;;;11.40;99.90;;;;;;5074581;28;19999;-75
2022/09/27 05:48:07;;;;;;;;;;;11.40;99.90;;;;;;5074902;28;19915;-75
2022/09/27 05:50:33;;;;;;;;;;;11.40;99.90;;;;;;5075357;28;20023;-74
2022/09/27 05:52:58;;;;;;;;;;;11.40;99.90;;;;;;5074940;28;19912;-74
2022/09/27 05:55:24;;;;;;;;;;;11.40;99.90;;;;;;5075628;28;19915;-74
2022/09/27 05:57:57;;;;;;;;;;;11.40;99.90;;;;;;5075493;28;19913;-74
2022/09/27 06:00:22;;;;;;;;;;;11.40;99.90;;;;;;5075173;28;19915;-74
2022/09/27 06:02:55;;;;;;;;;;;11.40;99.90;;;;;;5075605;28;19912;-75
2022/09/27 06:05:21;;;;;;;;;;;11.40;99.90;;;;;;5074987;28;19920;-73
2022/09/27 06:07:48;;;;;;;;;;;11.40;99.90;;;;;;5075168;28;20269;-74
2022/09/27 06:10:15;;;;;;;;;;;11.40;99.90;;;;;;5074835;28;19944;-74
2022/09/27 06:12:40;;;;;;;;;;;11.40;99.90;;;;;;5075257;28;19908;-74
2022/09/27 06:15:07;;;;;;;;;;;11.30;99.90;;;;;;5074214;28;19919;-74
2022/09/27 06:17:36;;;;;;;;;;;11.30;99.90;;;;;;5074880;28;20003;-73
2022/09/27 06:20:01;;;;;;;;;;;11.30;99.90;;;;;;5075434;28;19915;-74
2022/09/27 06:22:27;;;;;;;;;;;11.20;99.90;;;;;;5074751;28;19913;-73
2022/09/27 06:24:53;;;;;;;;;;;11.20;99.90;;;;;;5075207;28;19913;-74
2022/09/27 06:27:18;;;;;;;;;;;11.20;99.90;;;;;;5074364;28;19954;-74
2022/09/27 06:29:44;;;;;;;;;;;11.20;99.90;;;;;;5074677;28;19966;-73
2022/09/27 06:32:10;;;;;;;;;;;11.20;99.90;;;;;;5074923;28;19913;-74
2022/09/27 06:34:35;;;;;;;;;;;11.10;99.90;;;;;;5074787;28;19915;-74
2022/09/27 06:37:01;;;;;;;;;;;11.10;99.90;;;;;;5074977;28;19909;-74
2022/09/27 06:39:27;;;;;;;;;;;11.10;99.90;;;;;;5073953;28;19918;-74
2022/09/27 06:41:56;;;;;;;;;;;11.20;99.90;;;;;;5074566;28;19908;-73
2022/09/27 06:44:23;;;;;;;;;;;11.20;99.90;;;;;;5073984;28;19917;-74
2022/09/27 06:46:49;;;;;;;;;;;11.20;99.90;;;;;;5074724;28;19960;-74
2022/09/27 06:49:14;;;;;;;;;;;11.20;99.90;;;;;;5074125;28;19908;-74
2022/09/27 06:51:41;;;;;;;;;;;11.20;99.90;;;;;;5074767;28;19920;-74
2022/09/27 06:54:06;;;;;;;;;;;11.30;99.90;;;;;;5074569;28;19908;-74
2022/09/27 06:56:32;;;;;;;;;;;11.20;99.90;;;;;;5072168;28;19956;-73
2022/09/27 07:01:41;;;;;;;;;;;11.30;99.90;;;;;;5074220;28;19916;-74
2022/09/27 07:04:10;;;;;;;;;;;11.30;99.90;;;;;;5074504;28;19913;-75
2022/09/27 07:06:36;;;;;;;;;;;11.30;99.90;;;;;;5073585;28;19908;-74
2022/09/27 07:09:02;;;;;;;;;;;11.30;99.90;;;;;;5074300;28;19908;-74
2022/09/27 07:11:27;;;;;;;;;;;11.30;99.90;;;;;;5073461;28;20364;-74
2022/09/27 07:13:55;;;;;;;;;;;11.30;99.90;;;;;;5074135;28;20453;-72
2022/09/27 07:16:21;;;;;;;;;;;11.30;99.90;;;;;;5073330;28;19999;-74
2022/09/27 07:18:47;;;;;;;;;;;11.40;99.90;;;;;;5074240;28;20058;-73
2022/09/27 07:21:15;;;;;;;;;;;11.40;99.90;;;;;;5073615;28;19915;-73
2022/09/27 07:23:40;;;;;;;;;;;11.40;99.90;;;;;;5106138;28;19920;-73
2022/09/27 07:26:07;;;;;;;;;;;11.50;99.90;;;;;;5106479;28;20242;-74
2022/09/27 07:28:33;;;;;;;;;;;11.50;99.90;;;;;;5073297;28;19908;-74
2022/09/27 07:30:59;;;;;;;;;;;11.50;99.90;;;;;;5073851;28;19908;-74
2022/09/27 07:33:25;;;;;;;;;;;11.60;99.90;;;;;;5073676;28;19931;-74
2022/09/27 07:35:50;;;;;;;;;;;11.60;99.90;;;;;;5073844;28;19909;-74
2022/09/27 07:38:16;;;;;;;;;;;11.60;99.90;;;;;;5072117;28;19908;-75
2022/09/27 07:40:42;;;;;;;;;;;11.60;99.90;;;;;;5072346;28;19917;-75
2022/09/27 07:43:11;;;;;;;;;;;11.60;99.90;;;;;;5073055;28;19917;-75
2022/09/27 07:45:36;;;;;;;;;;;11.70;99.90;;;;;;5072881;28;20293;-75
2022/09/27 07:48:05;;;;;;;;;;;11.70;99.90;;;;;;5073482;28;19930;-76
2022/09/27 07:50:31;;;;;;;;;;;11.80;99.90;;;;;;5072177;28;19932;-75
2022/09/27 07:52:57;;;;;;;;;;;11.80;99.90;;;;;;5073516;28;20453;-74
2022/09/27 07:55:23;;;;;;;;;;;11.90;99.90;;;;;;5072867;28;20277;-75
2022/09/27 07:57:49;;;;;;;;;;;11.90;99.90;;;;;;5072036;28;19909;-75
2022/09/27 08:00:16;;;;;;;;;;;11.90;99.90;;;;;;5072638;28;19988;-75
2022/09/27 08:02:42;;;;;;;;;;;12.00;99.90;;;;;;5072794;28;20350;-75
2022/09/27 08:05:08;;;;;;;;;;;12.00;99.90;;;;;;5072858;28;19913;-76
2022/09/27 08:07:34;;;;;;;;;;;12.10;99.90;;;;;;5072048;28;19955;-75
2022/09/27 08:09:59;;;;;;;;;;;12.10;99.90;;;;;;5072303;28;20350;-75
2022/09/27 08:12:25;;;;;;;;;;;12.20;99.90;;;;;;5072484;28;19908;-75
2022/09/27 08:14:57;;;;;;;;;;;12.20;99.90;;;;;;5073050;28;19909;-75
2022/09/27 08:17:22;;;;;;;;;;;12.20;99.90;;;;;;5072298;28;19909;-74
2022/09/27 08:19:48;;;;;;;;;;;12.30;99.90;;;;;;5073297;28;19915;-75
2022/09/27 08:22:15;;;;;;;;;;;12.30;99.90;;;;;;5072093;28;19939;-75
2022/09/27 08:24:40;;;;;;;;;;;12.40;99.90;;;;;;5072681;28;19970;-75
2022/09/27 08:27:07;;;;;;;;;;;12.40;99.90;;;;;;5072442;28;19908;-75
2022/09/27 08:29:33;;;;;;;;;;;12.40;99.90;;;;;;5072050;28;20560;-75
2022/09/27 08:31:59;;;;;;;;;;;12.50;99.90;;;;;;5073169;28;19908;-75
2022/09/27 08:34:24;;;;;;;;;;;12.50;99.90;;;;;;5070766;28;19909;-75
2022/09/27 08:36:50;;;;;;;;;;;12.50;99.90;;;;;;5072708;28;19915;-75
2022/09/27 08:39:15;;;;;;;;;;;12.60;99.90;;;;;;5071940;28;19908;-75
2022/09/27 08:42:00;;;;;;;;;;;12.60;99.90;;;;;;5072561;28;19999;-75
2022/09/27 08:44:28;;;;;;;;;;;12.70;99.90;;;;;;5071651;28;20392;-75
2022/09/27 08:47:00;;;;;;;;;;;12.70;99.90;;;;;;5071908;28;20258;-73
2022/09/27 08:49:44;;;;;;;;;;;12.80;99.90;;;;;;5071920;28;19909;-74
2022/09/27 08:52:17;;;;;;;;;;;12.90;99.90;;;;;;5072078;28;19925;-73
2022/09/27 08:54:43;;;;;;;;;;;12.90;99.90;;;;;;5072357;28;19912;-73
2022/09/27 08:57:11;;;;;;;;;;;13.00;99.90;;;;;;5072418;28;19958;-73
2022/09/27 08:59:42;;;;;;;;;;;13.00;99.90;;;;;;5070817;28;20315;-74
2022/09/27 09:02:26;;;;;;;;;;;13.10;99.90;;;;;;5072190;28;19952;-74
2022/09/27 09:04:54;;;;;;;;;;;13.10;99.90;;;;;;5052402;28;20362;-74
2022/09/27 09:07:31;;;;;;;;;;;13.00;99.90;;;;;;5059264;28;19913;-74
2022/09/27 09:09:56;;;;;;;;;;;13.00;99.90;;;;;;5072299;28;20368;-74
2022/09/27 09:12:46;;;;;;;;;;;13.00;99.90;;;;;;5071831;28;19961;-74
2022/09/27 09:15:15;;;;;;;;;;;13.10;99.90;;;;;;5071893;28;19912;-74
2022/09/27 09:17:43;;;;;;;;;;;13.00;99.90;;;;;;5072067;28;19908;-74
2022/09/27 09:20:15;;;;;;;;;;;13.00;99.90;;;;;;5073769;28;19909;-74
2022/09/27 09:22:59;;;;;;;;;;;13.00;99.90;;;;;;5075765;28;19912;-74
2022/09/27 09:25:24;;;;;;;;;;;13.10;99.90;;;;;;5074364;28;19966;-74
2022/09/27 09:28:00;;;;;;;;;;;13.10;99.90;;;;;;5075740;28;19917;-74
2022/09/27 09:30:39;;;;;;;;;;;13.10;99.90;;;;;;5075303;28;20383;-74
2022/09/27 09:33:23;;;;;;;;;;;13.20;99.90;;;;;;5076041;28;19915;-74
2022/09/27 09:35:49;;;;;;;;;;;13.30;99.90;;;;;;5075899;28;19948;-74
2022/09/27 09:38:21;;;;;;;;;;;13.30;99.90;;;;;;5075231;28;19951;-74
2022/09/27 09:40:49;;;;;;;;;;;13.30;99.90;;;;;;5075525;28;20384;-74
2022/09/27 09:43:44;;;;;;;;;;;13.40;99.90;;;;;;5074779;28;19920;-74
2022/09/27 09:46:16;;;;;;;;;;;13.30;99.90;;;;;;5066127;28;19916;-74
2022/09/27 09:48:48;;;;;;;;;;;13.40;99.90;;;;;;5075369;28;19913;-73
2022/09/27 09:51:17;;;;;;;;;;;13.40;99.90;;;;;;5074570;28;20015;-74
2022/09/27 09:53:43;;;;;;;;;;;13.40;99.90;;;;;;5074013;28;19943;-75
2022/09/27 09:56:15;;;;;;;;;;;13.50;99.90;;;;;;5075216;28;19955;-74
2022/09/27 09:58:50;;;;;;;;;;;13.50;99.90;;;;;;5074811;28;19919;-74
2022/09/27 10:01:26;;;;;;;;;;;13.60;99.90;;;;;;5075225;28;19909;-74
2022/09/27 10:03:53;;;;;;;;;;;13.60;99.90;;;;;;5075229;28;19912;-74
2022/09/27 10:06:18;;;;;;;;;;;13.70;99.90;;;;;;5074356;28;19916;-74
2022/09/27 10:08:44;;;;;;;;;;;13.60;99.90;;;;;;5074524;28;19909;-73
2022/09/27 10:11:18;;;;;;;;;;;13.60;99.90;;;;;;5074559;28;19908;-75
2022/09/27 10:13:44;;;;;;;;;;;13.60;99.90;;;;;;5074379;28;19912;-75
2022/09/27 10:16:11;;;;;;;;;;;13.60;99.90;;;;;;5074444;28;20269;-75
2022/09/27 10:18:38;;;;;;;;;;;13.60;99.90;;;;;;5074022;28;19908;-74
2022/09/27 10:21:06;;;;;;;;;;;13.50;99.90;;;;;;5074554;28;19938;-75
2022/09/27 10:23:31;;;;;;;;;;;13.50;99.90;;;;;;5072379;28;19916;-76
2022/09/27 10:26:01;;;;;;;;;;;13.50;99.90;;;;;;5074723;28;19912;-76
2022/09/27 10:28:31;;;;;;;;;;;13.40;99.90;;;;;;5073141;28;20285;-76
2022/09/27 10:30:59;;;;;;;;;;;13.40;99.90;;;;;;5073689;28;19912;-75
2022/09/27 10:33:25;;;;;;;;;;;13.40;99.90;;;;;;5073204;28;19919;-75
2022/09/27 10:35:52;;;;;;;;;;;13.40;99.90;;;;;;5074540;28;19912;-76
2022/09/27 10:38:17;;;;;;;;;;;13.40;99.90;;;;;;5073755;28;19908;-75
2022/09/27 10:40:43;;;;;;;;;;;13.40;99.90;;;;;;5074321;28;19923;-76
2022/09/27 10:43:24;;;;;;;;;;;13.40;99.90;;;;;;5073650;28;20362;-76
2022/09/27 10:45:58;;;;;;;;;;;13.40;99.90;;;;;;5074844;28;20331;-76
2022/09/27 10:48:24;;;;;;;;;;;13.40;99.90;;;;;;5074191;28;19912;-76
2022/09/27 10:50:58;;;;;;;;;;;13.40;99.90;;;;;;5072841;28;19927;-75
2022/09/27 10:53:23;;;;;;;;;;;13.40;99.90;;;;;;5073634;28;20268;-75
2022/09/27 10:55:50;;;;;;;;;;;13.30;99.90;;;;;;5074472;28;19991;-75
2022/09/27 10:58:23;;;;;;;;;;;13.40;99.90;;;;;;5074283;28;20373;-75
2022/09/27 11:01:03;;;;;;;;;;;13.40;99.90;;;;;;5074700;28;19985;-75
2022/09/27 11:03:30;;;;;;;;;;;13.50;99.90;;;;;;5073882;28;19917;-75
2022/09/27 11:05:58;;;;;;;;;;;13.60;99.90;;;;;;5073866;28;19912;-76
2022/09/27 11:08:25;;;;;;;;;;;13.70;99.90;;;;;;5072991;28;19916;-76
2022/09/27 11:11:11;;;;;;;;;;;13.70;99.90;;;;;;5074033;28;20364;-75
2022/09/27 11:13:36;;;;;;;;;;;13.80;99.90;;;;;;5072913;28;20377;-75
2022/09/27 11:16:08;;;;;;;;;;;13.80;99.90;;;;;;5074115;28;19916;-75
2022/09/27 11:18:44;;;;;;;;;;;13.80;99.90;;;;;;5073449;28;19951;-75
2022/09/27 11:21:25;;;;;;;;;;;13.90;99.90;;;;;;5073909;28;19908;-75
2022/09/27 11:24:10;;;;;;;;;;;13.90;99.90;;;;;;5073231;28;19919;-74
2022/09/27 11:26:45;;;;;;;;;;;13.90;99.90;;;;;;5071651;28;20386;-75
2022/09/27 11:29:18;;;;;;;;;;;13.90;99.90;;;;;;5073591;28;19970;-75
2022/09/27 11:32:09;;;;;;;;;;;13.90;99.90;;;;;;5073600;28;19917;-76
2022/09/27 11:34:44;;;;;;;;;;;13.90;99.90;;;;;;5057009;28;19995;-76
2022/09/27 11:37:09;;;;;;;;;;;13.90;99.90;;;;;;5073741;28;19909;-74
2022/09/27 11:39:35;;;;;;;;;;;14.00;99.90;;;;;;5071705;28;19904;-74
2022/09/27 11:42:01;;;;;;;;;;;14.00;99.90;;;;;;5073912;28;19934;-75
2022/09/27 11:44:30;;;;;;;;;;;14.00;99.90;;;;;;5073105;28;19965;-75
2022/09/27 11:47:14;;;;;;;;;;;13.90;99.90;;;;;;5073656;28;20281;-76
2022/09/27 11:49:58;;;;;;;;;;;13.90;99.90;;;;;;5073196;28;20478;-75
2022/09/27 11:52:24;;;;;;;;;;;13.80;99.90;;;;;;5072966;28;19934;-76
2022/09/27 11:54:52;;;;;;;;;;;13.90;99.90;;;;;;5073300;28;19908;-76
2022/09/27 11:57:22;;;;;;;;;;;13.90;99.90;;;;;;5072893;28;19915;-76
2022/09/27 11:59:50;;;;;;;;;;;13.90;99.90;;;;;;5072288;28;20344;-76
2022/09/27 12:02:18;;;;;;;;;;;13.80;99.90;;;;;;5072540;28;19920;-75
2022/09/27 12:05:00;;;;;;;;;;;13.90;99.90;;;;;;5073295;28;19916;-75
2022/09/27 12:07:26;;;;;;;;;;;13.90;99.90;;;;;;5072438;28;19908;-75
2022/09/27 12:09:56;;;;;;;;;;;13.80;99.90;;;;;;5073197;28;19908;-75
2022/09/27 12:12:28;;;;;;;;;;;13.80;99.90;;;;;;5072325;28;19919;-75
2022/09/27 12:15:11;;;;;;;;;;;13.90;99.90;;;;;;5072998;28;20382;-75
2022/09/27 12:17:41;;;;;;;;;;;13.90;99.90;;;;;;5072957;28;19904;-75
2022/09/27 12:20:19;;;;;;;;;;;14.00;99.90;;;;;;5072772;28;19909;-75
2022/09/27 12:22:56;;;;;;;;;;;14.00;99.90;;;;;;5072916;28;20250;-76
2022/09/27 12:25:24;;;;;;;;;;;14.10;99.90;;;;;;5072503;28;19952;-75
2022/09/27 12:27:53;;;;;;;;;;;14.20;99.90;;;;;;5072819;28;19908;-75
2022/09/27 12:30:18;;;;;;;;;;;14.20;99.90;;;;;;5072003;28;19909;-75
2022/09/27 12:33:03;;;;;;;;;;;14.20;99.90;;;;;;5072540;28;20254;-74
2022/09/27 12:35:35;;;;;;;;;;;14.10;99.90;;;;;;5072379;28;20261;-76
2022/09/27 12:38:03;;;;;;;;;;;14.20;99.90;;;;;;5073004;28;20350;-75
2022/09/27 12:40:32;;;;;;;;;;;14.10;99.90;;;;;;5072014;28;19916;-75
2022/09/27 12:43:00;;;;;;;;;;;14.00;99.90;;;;;;5072461;28;19967;-75
2022/09/27 12:45:38;;;;;;;;;;;13.90;99.90;;;;;;5072091;28;19913;-76
2022/09/27 12:48:06;;;;;;;;;;;13.90;99.90;;;;;;5072467;28;20350;-75
2022/09/27 12:50:42;;;;;;;;;;;13.80;99.90;;;;;;5070529;28;20007;-76
2022/09/27 12:53:12;;;;;;;;;;;13.80;99.90;;;;;;5072779;28;20365;-76
2022/09/27 12:55:58;;;;;;;;;;;13.80;99.90;;;;;;5071620;28;19948;-75
2022/09/27 12:58:34;;;;;;;;;;;13.80;99.90;;;;;;5072101;28;19958;-76
2022/09/27 13:01:09;;;;;;;;;;;13.80;99.90;;;;;;5072386;28;19909;-75
2022/09/27 13:03:53;;;;;;;;;;;13.80;99.90;;;;;;5072092;28;20011;-74
2022/09/27 13:06:48;;;;;;;;;;;13.80;99.90;;;;;;5071718;28;19913;-75
2022/09/27 13:09:14;;;;;;;;;;;13.70;99.90;;;;;;5061783;28;19938;-75
2022/09/27 13:11:59;;;;;;;;;;;13.70;99.90;;;;;;5071779;28;20389;-75
2022/09/27 13:14:26;;;;;;;;;;;13.70;99.90;;;;;;5071492;28;20014;-75
2022/09/27 13:16:52;;;;;;;;;;;13.70;99.90;;;;;;5072515;28;19915;-75
2022/09/27 13:19:33;;;;;;;;;;;13.70;99.90;;;;;;5071898;28;19909;-74
2022/09/27 13:21:59;;;;;;;;;;;13.70;99.90;;;;;;5071184;28;19951;-76
2022/09/27 13:24:45;;;;;;;;;;;13.70;99.90;;;;;;5071768;28;20373;-75
2022/09/27 13:27:26;;;;;;;;;;;13.70;99.90;;;;;;5072332;28;19909;-75
2022/09/27 13:30:06;;;;;;;;;;;13.70;99.90;;;;;;5072216;28;19912;-76
2022/09/27 13:32:32;;;;;;;;;;;13.70;99.90;;;;;;5071661;28;19908;-75
2022/09/27 13:35:17;;;;;;;;;;;13.60;99.90;;;;;;5072289;28;20008;-76
2022/09/27 13:37:47;;;;;;;;;;;13.60;99.90;;;;;;5070415;28;19909;-75
2022/09/27 13:40:14;;;;;;;;;;;13.50;99.90;;;;;;5086383;28;19958;-75
2022/09/27 13:42:47;;;;;;;;;;;13.50;99.90;;;;;;5091924;28;19908;-75
2022/09/27 13:45:16;;;;;;;;;;;13.50;99.90;;;;;;5092258;28;20412;-76
2022/09/27 13:47:44;;;;;;;;;;;13.40;99.90;;;;;;5092114;28;19940;-76
2022/09/27 13:50:28;;;;;;;;;;;13.40;99.90;;;;;;5091677;28;19908;-75
2022/09/27 13:53:12;;;;;;;;;;;13.40;99.90;;;;;;5092260;28;19924;-75
2022/09/27 13:55:39;;;;;;;;;;;13.40;99.90;;;;;;5091685;28;19916;-75
2022/09/27 13:58:14;;;;;;;;;;;13.40;99.90;;;;;;5092009;28;20303;-75
2022/09/27 14:00:42;;;;;;;;;;;13.40;99.90;;;;;;5091376;28;19904;-75
2022/09/27 14:03:11;;;;;;;;;;;13.40;99.90;;;;;;5091810;28;19920;-76
2022/09/27 14:05:38;;;;;;;;;;;13.40;99.90;;;;;;5091455;28;19912;-76
2022/09/27 14:08:05;;;;;;;;;;;13.40;99.90;;;;;;5094739;28;19996;-76
2022/09/27 14:10:31;;;;;;;;;;;13.40;99.90;;;;;;5093985;28;19947;-76
2022/09/27 14:12:58;;;;;;;;;;;13.50;99.90;;;;;;5095332;28;19956;-76
2022/09/27 14:15:26;;;;;;;;;;;13.50;99.90;;;;;;5095246;28;20282;-76
2022/09/27 14:17:52;;;;;;;;;;;13.60;99.90;;;;;;5095716;28;20392;-76
2022/09/27 14:20:33;;;;;;;;;;;13.60;99.90;;;;;;5095621;28;19948;-75
2022/09/27 14:23:00;;;;;;;;;;;13.60;99.90;;;;;;5095294;28;19913;-75
2022/09/27 14:25:25;;;;;;;;;;;13.70;99.90;;;;;;5095028;28;19916;-76
2022/09/27 14:27:51;;;;;;;;;;;13.70;99.90;;;;;;5095339;28;20434;-75
2022/09/27 14:30:18;;;;;;;;;;;13.70;99.90;;;;;;5095302;28;20346;-75
2022/09/27 14:32:50;;;;;;;;;;;13.70;99.90;;;;;;5094484;28;19919;-75
2022/09/27 14:38:10;;;;;;;;;;;13.70;99.90;;;;;;5095324;28;19931;-76